CheckWX is a tool to help pilots better visualize weather data.  It is not intended as a substitute for an official pre-flight weather briefing.

20:51:28 UTC

KVPS TAF
Eglin AFB / Destin-Ft Walton Beach Airport
Valparaiso/Destin-Ft Walton Beach, Florida, USA
TAF KVPS 161700Z 1617/1723 16012KT 9999 SCT030 SCT250 QNH2995INS WND 13008KT AFT 1623 BECMG 1701/1702 10005KT 9999 FEW020 FEW250 QNH2995INS WND 04005KT AFT 1707 BECMG 1713/1714 13007KT 9999 FEW020 FEW250 QNH2994INS WND 16012KT AFT 1716 TX31/1619Z TN22/1711Z

Jun-16@
17:00 UTC

Jun-16 @ 17:00 UTC

Jun-17@
01:00 UTC

Jun-17 @ 01:00 UTC

TAF KVPS 161700Z 1617/1723 16012KT 9999 SCT030 SCT250 QNH2995INS WND 13008KT AFT 1623
Wind
  • 160° at 12 KTS
Cloud Levels
  • Scattered at 3,000' AGL
  • Scattered at 25,000' AGL

Jun-17@
01:00 UTC

Jun-17 @ 01:00 UTC

Jun-17@
13:00 UTC

Jun-17 @ 13:00 UTC

BECMG 1701/1702 10005KT 9999 FEW020 FEW250 QNH2995INS WND 04005KT AFT 1707

Becoming

Becoming Conditions expected by Mon, Jun 17, 2019 @ 02:00 UTC

Wind
  • 100° at 5 KTS
Cloud Levels
  • Few at 2,000' AGL
  • Few at 25,000' AGL

Jun-17@
13:00 UTC

Jun-17 @ 13:00 UTC

Jun-17@
23:00 UTC

Jun-17 @ 23:00 UTC

BECMG 1713/1714 13007KT 9999 FEW020 FEW250 QNH2994INS WND 16012KT AFT 1716 TX31/1619Z TN22/1711Z

Becoming

Becoming Conditions expected by Mon, Jun 17, 2019 @ 14:00 UTC

Wind
  • 130° at 7 KTS
Cloud Levels
  • Few at 2,000' AGL
  • Few at 25,000' AGL